Jabbeke, Belgium
Current Conditions -  °F | °C
As of 12:50 AM on Saturday 29 Nov 2014 (Local Time) from EBOS Reporting Station
Clear Clear  
Wind Chill: 39°   Ceiling: Unl
Heat Index: 43°   Visibility: 5mi
Dew Point: 39°   Wind: 7mph
Humidity: 87%   Direction: 110°ESE
Pressure: 29.8"   Gusts: NA
Location:  51.18°N, 3.09°E
Report Text: EBOS 282350Z 11006KT 8000 NSC 06/04 Q1009 NOSIG
Loading
Personal Weather Stations






























Interactive Weather Map New forecast layout! Learn more

10-Day Weather Forecast

Advertisements
Track Severe Weather on mobile